EST,Max TemperatureF,Mean TemperatureF,Min TemperatureF,Max Dew PointF,MeanDew PointF,Min DewpointF,Max Humidity, Mean Humidity, Min Humidity, Max Sea Level PressureIn, Mean Sea Level PressureIn, Min Sea Level PressureIn, Max VisibilityMiles, Mean VisibilityMiles, Min VisibilityMiles, Max Wind SpeedMPH, Mean Wind SpeedMPH, Max Gust SpeedMPH,PrecipitationIn, CloudCover, Events, WindDirDegrees
2013-1-1,56,53,49,52,47,42,93,80,66,30.13,30.05,29.94,10,7,1,8,3,10,0.09,7,Rain,244
2013-1-2,58,54,50,52,50,43,93,84,74,30.17,30.00,29.89,10,7,1,14,4,16,0.14,8,Rain,42
2013-1-3,53,49,45,47,45,38,93,84,74,30.29,30.17,30.09,10,7,1,10,4,13,0.05,8,Rain,71
2013-1-4,56,45,33,37,33,29,100,68,35,30.36,30.31,30.25,10,6,0,10,2,14,0.00,3,Fog,285
2013-1-5,54,40,26,39,28,22,85,57,29,30.42,30.34,30.28,10,10,7,7,2,12,T,4,,169
2013-1-6,53,46,39,45,41,33,92,74,56,30.25,30.17,30.08,10,10,6,12,5,15,0.04,6,Rain,238
2013-1-7,57,44,31,36,32,29,92,64,35,30.42,30.34,30.23,10,10,6,13,3,16,0.00,2,,72
2013-1-8,59,46,32,43,38,29,92,71,50,30.42,30.37,30.34,10,10,7,7,2,9,0.00,7,,28
2013-1-9,72,56,40,54,47,37,92,70,47,30.43,30.38,30.35,10,9,6,9,1,10,0.00,4,,347
2013-1-10,75,61,47,57,51,44,93,68,43,30.47,30.40,30.34,10,9,6,16,5,21,T,5,Rain,105
2013-1-11,74,66,57,61,58,55,100,82,64,30.32,30.24,30.15,10,5,0,13,5,16,T,7,Fog,134
2013-1-12,82,70,57,60,58,55,100,73,45,30.19,30.14,30.09,10,7,0,14,3,17,0.00,2,Fog,219
2013-1-13,78,66,54,61,58,54,93,73,52,30.16,30.10,30.06,10,9,2,17,7,22,0.00,4,,206
2013-1-14,81,71,61,60,58,55,84,66,48,30.15,30.11,30.06,10,10,9,23,7,30,0.00,5,,191
2013-1-15,78,69,60,61,58,56,90,68,45,30.14,30.07,30.00,10,9,6,16,5,20,0.00,6,,199
2013-1-16,76,69,62,63,60,56,87,70,53,30.01,29.98,29.94,10,10,9,22,5,25,T,7,Rain,241
2013-1-17,78,60,42,63,55,37,100,77,54,30.16,29.88,29.70,10,7,2,31,11,43,0.49,7,Rain,224
2013-1-18,55,44,32,36,28,18,92,59,26,30.51,30.41,30.21,10,10,10,16,5,25,0.00,1,Fog,26
2013-1-19,61,44,27,39,30,24,92,61,30,30.51,30.38,30.21,10,10,9,7,1,8,0.00,1,,220
2013-1-20,68,51,34,37,33,27,89,57,25,30.20,30.12,30.04,10,10,7,15,4,20,0.00,1,,262
2013-1-21,66,49,32,40,30,20,89,55,20,30.09,30.04,29.97,10,10,8,23,8,28,0.00,3,Fog,257
2013-1-22,51,43,34,23,18,15,59,43,26,30.27,30.17,30.04,10,10,10,17,7,26,0.00,1,,283
2013-1-23,54,41,27,29,20,9,69,46,23,30.39,30.27,30.13,10,10,9,15,4,28,0.00,0,,262
2013-1-24,63,49,34,40,25,3,71,43,14,30.48,30.21,30.05,10,10,9,21,12,26,0.00,2,,328
2013-1-25,36,32,28,25,12,5,69,49,28,30.51,30.34,30.16,10,10,10,13,5,17,T,6,,78
2013-1-26,59,47,34,32,29,25,75,54,33,30.34,30.21,30.12,10,10,10,9,2,13,0.00,4,,63
2013-1-27,52,43,33,30,26,23,76,56,35,30.54,30.47,30.35,10,9,6,15,6,18,0.00,3,,70
2013-1-28,63,51,39,44,33,27,100,75,49,30.47,30.39,30.30,10,7,4,12,2,22,T,6,,55
2013-1-29,77,58,38,62,47,34,93,72,50,30.29,30.20,30.07,10,6,0,16,5,23,0.00,4,Fog,183
2013-1-30,82,69,55,64,61,51,93,68,43,30.05,29.82,29.52,10,9,2,32,17,39,0.40,7,Rain,191
2013-1-31,56,49,41,48,29,20,77,51,24,30.15,29.93,29.68,10,10,10,35,17,47,T,2,,257